sensor_id;sensor_type;location;lat;lon;timestamp;temperature;humidity
15638;DHT22;26604;53.596;10.042;2023-07-22T00:01:20;13.00;99.90
15638;DHT22;26604;53.596;10.042;2023-07-22T00:03:47;13.00;99.90
15638;DHT22;26604;53.596;10.042;2023-07-22T00:06:21;13.00;99.90
15638;DHT22;26604;53.596;10.042;2023-07-22T00:08:49;13.00;99.90
15638;DHT22;26604;53.596;10.042;2023-07-22T00:11:16;13.00;99.90
15638;DHT22;26604;53.596;10.042;2023-07-22T00:13:43;13.00;99.90
15638;DHT22;26604;53.596;10.042;2023-07-22T00:16:10;12.90;99.90
15638;DHT22;26604;53.596;10.042;2023-07-22T00:18:37;12.80;99.90
15638;DHT22;26604;53.596;10.042;2023-07-22T00:21:04;12.80;99.90
15638;DHT22;26604;53.596;10.042;2023-07-22T00:23:33;12.70;99.90
15638;DHT22;26604;53.596;10.042;2023-07-22T00:26:00;12.70;99.90
15638;DHT22;26604;53.596;10.042;2023-07-22T00:28:28;12.70;99.90
15638;DHT22;26604;53.596;10.042;2023-07-22T00:30:55;12.70;99.90
15638;DHT22;26604;53.596;10.042;2023-07-22T00:33:23;12.60;99.90
15638;DHT22;26604;53.596;10.042;2023-07-22T00:35:50;12.70;99.90
15638;DHT22;26604;53.596;10.042;2023-07-22T00:38:17;12.70;99.90
15638;DHT22;26604;53.596;10.042;2023-07-22T00:40:45;12.70;99.90
15638;DHT22;26604;53.596;10.042;2023-07-22T00:43:13;12.70;99.90
15638;DHT22;26604;53.596;10.042;2023-07-22T00:45:39;12.70;99.90
15638;DHT22;26604;53.596;10.042;2023-07-22T00:48:07;12.70;99.90
15638;DHT22;26604;53.596;10.042;2023-07-22T00:50:35;12.70;99.90
15638;DHT22;26604;53.596;10.042;2023-07-22T00:53:02;12.60;99.90
15638;DHT22;26604;53.596;10.042;2023-07-22T00:55:29;12.60;99.90
15638;DHT22;26604;53.596;10.042;2023-07-22T00:58:00;12.60;99.90
15638;DHT22;26604;53.596;10.042;2023-07-22T01:00:27;12.60;99.90
15638;DHT22;26604;53.596;10.042;2023-07-22T01:02:54;12.50;99.90
15638;DHT22;26604;53.596;10.042;2023-07-22T01:05:21;12.50;99.90
15638;DHT22;26604;53.596;10.042;2023-07-22T01:07:48;12.60;99.90
15638;DHT22;26604;53.596;10.042;2023-07-22T01:10:15;12.50;99.90
15638;DHT22;26604;53.596;10.042;2023-07-22T01:12:44;12.50;99.90
15638;DHT22;26604;53.596;10.042;2023-07-22T01:15:12;12.50;99.90
15638;DHT22;26604;53.596;10.042;2023-07-22T01:17:40;12.60;99.90
15638;DHT22;26604;53.596;10.042;2023-07-22T01:20:07;12.60;99.90
15638;DHT22;26604;53.596;10.042;2023-07-22T01:22:35;12.50;99.90
15638;DHT22;26604;53.596;10.042;2023-07-22T01:25:04;12.50;99.90
15638;DHT22;26604;53.596;10.042;2023-07-22T01:27:32;12.40;99.90
15638;DHT22;26604;53.596;10.042;2023-07-22T01:29:59;12.40;99.90
15638;DHT22;26604;53.596;10.042;2023-07-22T01:32:28;12.40;99.90
15638;DHT22;26604;53.596;10.042;2023-07-22T01:34:55;12.40;99.90
15638;DHT22;26604;53.596;10.042;2023-07-22T01:37:22;12.40;99.90
15638;DHT22;26604;53.596;10.042;2023-07-22T01:39:49;12.40;99.90
15638;DHT22;26604;53.596;10.042;2023-07-22T01:42:18;12.40;99.90
15638;DHT22;26604;53.596;10.042;2023-07-22T01:44:45;12.30;99.90
15638;DHT22;26604;53.596;10.042;2023-07-22T01:47:12;12.40;99.90
15638;DHT22;26604;53.596;10.042;2023-07-22T01:49:39;12.40;99.90
15638;DHT22;26604;53.596;10.042;2023-07-22T01:52:06;12.30;99.90
15638;DHT22;26604;53.596;10.042;2023-07-22T01:54:33;12.30;99.90
15638;DHT22;26604;53.596;10.042;2023-07-22T01:57:00;12.20;99.90
15638;DHT22;26604;53.596;10.042;2023-07-22T01:59:28;12.20;99.90
15638;DHT22;26604;53.596;10.042;2023-07-22T02:01:55;12.20;99.90
15638;DHT22;26604;53.596;10.042;2023-07-22T02:04:22;12.20;99.90
15638;DHT22;26604;53.596;10.042;2023-07-22T02:06:49;12.20;99.90
15638;DHT22;26604;53.596;10.042;2023-07-22T02:09:16;12.10;99.90
15638;DHT22;26604;53.596;10.042;2023-07-22T02:11:42;12.10;99.90
15638;DHT22;26604;53.596;10.042;2023-07-22T02:14:09;12.00;99.90
15638;DHT22;26604;53.596;10.042;2023-07-22T02:16:37;12.00;99.90
15638;DHT22;26604;53.596;10.042;2023-07-22T02:19:04;12.00;99.90
15638;DHT22;26604;53.596;10.042;2023-07-22T02:21:32;12.10;99.90
15638;DHT22;26604;53.596;10.042;2023-07-22T02:23:59;12.10;99.90
15638;DHT22;26604;53.596;10.042;2023-07-22T02:26:26;12.10;99.90
15638;DHT22;26604;53.596;10.042;2023-07-22T02:28:52;12.00;99.90
15638;DHT22;26604;53.596;10.042;2023-07-22T02:31:20;12.10;99.90
15638;DHT22;26604;53.596;10.042;2023-07-22T02:33:49;12.00;99.90
15638;DHT22;26604;53.596;10.042;2023-07-22T02:36:16;12.00;99.90
15638;DHT22;26604;53.596;10.042;2023-07-22T02:38:43;12.00;99.90
15638;DHT22;26604;53.596;10.042;2023-07-22T02:41:10;11.90;99.90
15638;DHT22;26604;53.596;10.042;2023-07-22T02:43:36;11.80;99.90
15638;DHT22;26604;53.596;10.042;2023-07-22T02:46:05;11.90;99.90
15638;DHT22;26604;53.596;10.042;2023-07-22T02:48:33;11.90;99.90
15638;DHT22;26604;53.596;10.042;2023-07-22T02:51:05;11.80;99.90
15638;DHT22;26604;53.596;10.042;2023-07-22T02:53:32;11.80;99.90
15638;DHT22;26604;53.596;10.042;2023-07-22T02:55:59;11.90;99.90
15638;DHT22;26604;53.596;10.042;2023-07-22T02:58:26;12.00;99.90
15638;DHT22;26604;53.596;10.042;2023-07-22T03:00:53;12.00;99.90
15638;DHT22;26604;53.596;10.042;2023-07-22T03:03:21;11.90;99.90
15638;DHT22;26604;53.596;10.042;2023-07-22T03:05:48;11.90;99.90
15638;DHT22;26604;53.596;10.042;2023-07-22T03:08:17;11.90;99.90
15638;DHT22;26604;53.596;10.042;2023-07-22T03:10:44;11.90;99.90
15638;DHT22;26604;53.596;10.042;2023-07-22T03:13:14;11.90;99.90
15638;DHT22;26604;53.596;10.042;2023-07-22T03:15:40;11.90;99.90
15638;DHT22;26604;53.596;10.042;2023-07-22T03:18:07;12.00;99.90
15638;DHT22;26604;53.596;10.042;2023-07-22T03:20:35;12.00;99.90
15638;DHT22;26604;53.596;10.042;2023-07-22T03:23:03;12.10;99.90
15638;DHT22;26604;53.596;10.042;2023-07-22T03:25:31;12.00;99.90
15638;DHT22;26604;53.596;10.042;2023-07-22T03:27:59;12.00;99.90
15638;DHT22;26604;53.596;10.042;2023-07-22T03:30:28;12.00;99.90
15638;DHT22;26604;53.596;10.042;2023-07-22T03:32:55;12.00;99.90
15638;DHT22;26604;53.596;10.042;2023-07-22T03:35:22;12.00;99.90
15638;DHT22;26604;53.596;10.042;2023-07-22T03:37:49;12.10;99.90
15638;DHT22;26604;53.596;10.042;2023-07-22T03:40:15;12.10;99.90
15638;DHT22;26604;53.596;10.042;2023-07-22T03:42:46;12.10;99.90
15638;DHT22;26604;53.596;10.042;2023-07-22T03:45:13;12.10;99.90
15638;DHT22;26604;53.596;10.042;2023-07-22T03:47:40;12.20;99.90
15638;DHT22;26604;53.596;10.042;2023-07-22T03:50:08;12.20;99.90
15638;DHT22;26604;53.596;10.042;2023-07-22T03:52:35;12.30;99.90
15638;DHT22;26604;53.596;10.042;2023-07-22T03:55:03;12.30;99.90
15638;DHT22;26604;53.596;10.042;2023-07-22T03:57:31;12.30;99.90
15638;DHT22;26604;53.596;10.042;2023-07-22T03:59:59;12.40;99.90
15638;DHT22;26604;53.596;10.042;2023-07-22T04:02:26;12.50;99.90
15638;DHT22;26604;53.596;10.042;2023-07-22T04:04:54;12.60;99.90
15638;DHT22;26604;53.596;10.042;2023-07-22T04:07:21;12.60;99.90
15638;DHT22;26604;53.596;10.042;2023-07-22T04:09:48;12.70;99.90
15638;DHT22;26604;53.596;10.042;2023-07-22T04:12:15;12.80;99.90
15638;DHT22;26604;53.596;10.042;2023-07-22T04:14:42;12.90;99.90
15638;DHT22;26604;53.596;10.042;2023-07-22T04:17:10;12.90;99.90
15638;DHT22;26604;53.596;10.042;2023-07-22T04:19:37;12.90;99.90
15638;DHT22;26604;53.596;10.042;2023-07-22T04:22:04;13.00;99.90
15638;DHT22;26604;53.596;10.042;2023-07-22T04:24:32;13.00;99.90
15638;DHT22;26604;53.596;10.042;2023-07-22T04:26:59;13.10;99.90
15638;DHT22;26604;53.596;10.042;2023-07-22T04:29:26;13.10;99.90
15638;DHT22;26604;53.596;10.042;2023-07-22T04:31:57;13.00;99.90
15638;DHT22;26604;53.596;10.042;2023-07-22T04:34:28;13.10;99.90
15638;DHT22;26604;53.596;10.042;2023-07-22T04:36:55;13.20;99.90
15638;DHT22;26604;53.596;10.042;2023-07-22T04:39:21;13.30;99.90
15638;DHT22;26604;53.596;10.042;2023-07-22T04:41:48;13.50;99.90
15638;DHT22;26604;53.596;10.042;2023-07-22T04:44:15;13.80;99.90
15638;DHT22;26604;53.596;10.042;2023-07-22T04:46:43;14.20;99.90
15638;DHT22;26604;53.596;10.042;2023-07-22T04:49:09;14.40;99.90
15638;DHT22;26604;53.596;10.042;2023-07-22T04:51:38;14.50;99.90
15638;DHT22;26604;53.596;10.042;2023-07-22T04:54:05;14.50;99.90
15638;DHT22;26604;53.596;10.042;2023-07-22T04:56:32;14.50;99.90
15638;DHT22;26604;53.596;10.042;2023-07-22T04:58:58;14.40;99.90
15638;DHT22;26604;53.596;10.042;2023-07-22T05:01:25;14.40;99.90
15638;DHT22;26604;53.596;10.042;2023-07-22T05:03:52;14.50;99.90
15638;DHT22;26604;53.596;10.042;2023-07-22T05:06:20;14.70;99.90
15638;DHT22;26604;53.596;10.042;2023-07-22T05:08:48;14.80;99.90
15638;DHT22;26604;53.596;10.042;2023-07-22T05:11:15;14.80;99.90
15638;DHT22;26604;53.596;10.042;2023-07-22T05:13:43;14.80;99.90
15638;DHT22;26604;53.596;10.042;2023-07-22T05:16:10;14.90;99.90
15638;DHT22;26604;53.596;10.042;2023-07-22T05:18:37;15.10;99.90
15638;DHT22;26604;53.596;10.042;2023-07-22T05:21:04;15.30;99.90
15638;DHT22;26604;53.596;10.042;2023-07-22T05:23:32;15.50;99.90
15638;DHT22;26604;53.596;10.042;2023-07-22T05:26:00;15.60;99.90
15638;DHT22;26604;53.596;10.042;2023-07-22T05:28:27;15.60;99.90
15638;DHT22;26604;53.596;10.042;2023-07-22T05:30:55;15.60;99.90
15638;DHT22;26604;53.596;10.042;2023-07-22T05:33:22;15.60;99.90
15638;DHT22;26604;53.596;10.042;2023-07-22T05:35:49;15.60;99.90
15638;DHT22;26604;53.596;10.042;2023-07-22T05:38:16;15.70;99.90
15638;DHT22;26604;53.596;10.042;2023-07-22T05:40:43;15.70;99.90
15638;DHT22;26604;53.596;10.042;2023-07-22T05:43:11;15.80;99.90
15638;DHT22;26604;53.596;10.042;2023-07-22T05:45:38;15.70;99.90
15638;DHT22;26604;53.596;10.042;2023-07-22T05:48:05;15.60;99.90
15638;DHT22;26604;53.596;10.042;2023-07-22T05:50:32;15.80;99.90
15638;DHT22;26604;53.596;10.042;2023-07-22T05:52:59;15.70;99.90
15638;DHT22;26604;53.596;10.042;2023-07-22T05:55:26;15.60;99.90
15638;DHT22;26604;53.596;10.042;2023-07-22T05:57:53;15.40;99.90
15638;DHT22;26604;53.596;10.042;2023-07-22T06:00:21;15.30;99.90
15638;DHT22;26604;53.596;10.042;2023-07-22T06:02:48;15.10;99.90
15638;DHT22;26604;53.596;10.042;2023-07-22T06:05:15;15.10;99.90
15638;DHT22;26604;53.596;10.042;2023-07-22T06:07:42;15.10;99.90
15638;DHT22;26604;53.596;10.042;2023-07-22T06:10:10;15.10;99.90
15638;DHT22;26604;53.596;10.042;2023-07-22T06:12:37;15.00;99.90
15638;DHT22;26604;53.596;10.042;2023-07-22T06:15:04;15.10;99.90
15638;DHT22;26604;53.596;10.042;2023-07-22T06:17:33;15.20;99.90
15638;DHT22;26604;53.596;10.042;2023-07-22T06:20:00;15.30;99.90
15638;DHT22;26604;53.596;10.042;2023-07-22T06:22:27;15.30;99.90
15638;DHT22;26604;53.596;10.042;2023-07-22T06:24:54;15.30;99.90
15638;DHT22;26604;53.596;10.042;2023-07-22T06:27:21;15.40;99.90
15638;DHT22;26604;53.596;10.042;2023-07-22T06:29:48;15.40;99.90
15638;DHT22;26604;53.596;10.042;2023-07-22T06:32:15;15.50;99.90
15638;DHT22;26604;53.596;10.042;2023-07-22T06:34:44;15.50;99.90
15638;DHT22;26604;53.596;10.042;2023-07-22T06:37:10;15.60;99.90
15638;DHT22;26604;53.596;10.042;2023-07-22T06:39:39;15.60;99.90
15638;DHT22;26604;53.596;10.042;2023-07-22T06:42:06;15.70;99.90
15638;DHT22;26604;53.596;10.042;2023-07-22T06:44:33;15.70;99.90
15638;DHT22;26604;53.596;10.042;2023-07-22T06:47:00;15.80;99.90
15638;DHT22;26604;53.596;10.042;2023-07-22T06:49:27;15.80;99.90
15638;DHT22;26604;53.596;10.042;2023-07-22T06:51:55;15.90;99.90
15638;DHT22;26604;53.596;10.042;2023-07-22T06:54:22;16.00;99.90
15638;DHT22;26604;53.596;10.042;2023-07-22T06:56:49;16.10;99.90
15638;DHT22;26604;53.596;10.042;2023-07-22T06:59:16;16.20;99.90
15638;DHT22;26604;53.596;10.042;2023-07-22T07:01:43;16.30;99.90
15638;DHT22;26604;53.596;10.042;2023-07-22T07:04:09;16.20;99.90
15638;DHT22;26604;53.596;10.042;2023-07-22T07:06:36;16.30;99.90
15638;DHT22;26604;53.596;10.042;2023-07-22T07:09:05;16.40;99.90
15638;DHT22;26604;53.596;10.042;2023-07-22T07:11:32;16.40;99.90
15638;DHT22;26604;53.596;10.042;2023-07-22T07:13:59;16.50;99.90
15638;DHT22;26604;53.596;10.042;2023-07-22T07:16:28;16.60;99.90
15638;DHT22;26604;53.596;10.042;2023-07-22T07:18:57;16.60;99.90
15638;DHT22;26604;53.596;10.042;2023-07-22T07:21:24;16.70;99.90
15638;DHT22;26604;53.596;10.042;2023-07-22T07:23:51;16.70;99.90
15638;DHT22;26604;53.596;10.042;2023-07-22T07:26:20;16.90;99.90
15638;DHT22;26604;53.596;10.042;2023-07-22T07:28:47;17.20;99.90
15638;DHT22;26604;53.596;10.042;2023-07-22T07:31:16;17.60;99.90
15638;DHT22;26604;53.596;10.042;2023-07-22T07:33:43;18.00;99.90
15638;DHT22;26604;53.596;10.042;2023-07-22T07:36:10;18.20;99.90
15638;DHT22;26604;53.596;10.042;2023-07-22T07:38:37;18.40;99.90
15638;DHT22;26604;53.596;10.042;2023-07-22T07:41:05;18.60;99.90
15638;DHT22;26604;53.596;10.042;2023-07-22T07:43:35;18.80;99.90
15638;DHT22;26604;53.596;10.042;2023-07-22T07:46:15;18.80;99.90
15638;DHT22;26604;53.596;10.042;2023-07-22T07:48:43;18.90;99.90
15638;DHT22;26604;53.596;10.042;2023-07-22T07:51:12;19.10;99.90
15638;DHT22;26604;53.596;10.042;2023-07-22T07:53:39;19.40;99.90
15638;DHT22;26604;53.596;10.042;2023-07-22T07:56:06;19.40;99.90
15638;DHT22;26604;53.596;10.042;2023-07-22T07:58:35;19.40;99.90
15638;DHT22;26604;53.596;10.042;2023-07-22T08:01:02;19.50;99.90
15638;DHT22;26604;53.596;10.042;2023-07-22T08:03:29;19.70;99.90
15638;DHT22;26604;53.596;10.042;2023-07-22T08:05:55;19.70;99.90
15638;DHT22;26604;53.596;10.042;2023-07-22T08:08:22;19.60;99.90
15638;DHT22;26604;53.596;10.042;2023-07-22T08:10:58;19.60;99.90
15638;DHT22;26604;53.596;10.042;2023-07-22T08:13:25;19.80;99.90
15638;DHT22;26604;53.596;10.042;2023-07-22T08:15:53;20.00;99.90
15638;DHT22;26604;53.596;10.042;2023-07-22T08:18:20;20.00;99.90
15638;DHT22;26604;53.596;10.042;2023-07-22T08:20:47;19.80;99.90
15638;DHT22;26604;53.596;10.042;2023-07-22T08:23:14;19.80;99.90
15638;DHT22;26604;53.596;10.042;2023-07-22T08:25:41;19.90;99.90
15638;DHT22;26604;53.596;10.042;2023-07-22T08:28:08;19.90;99.90
15638;DHT22;26604;53.596;10.042;2023-07-22T08:30:38;20.20;99.90
15638;DHT22;26604;53.596;10.042;2023-07-22T08:33:07;20.30;99.90
15638;DHT22;26604;53.596;10.042;2023-07-22T08:35:34;20.30;99.90
15638;DHT22;26604;53.596;10.042;2023-07-22T08:38:01;20.30;99.90
15638;DHT22;26604;53.596;10.042;2023-07-22T08:40:33;20.20;99.90
15638;DHT22;26604;53.596;10.042;2023-07-22T08:43:01;20.30;99.90
15638;DHT22;26604;53.596;10.042;2023-07-22T08:45:30;20.40;99.90
15638;DHT22;26604;53.596;10.042;2023-07-22T08:48:02;20.30;91.90
15638;DHT22;26604;53.596;10.042;2023-07-22T08:50:38;20.20;94.20
15638;DHT22;26604;53.596;10.042;2023-07-22T08:53:08;20.00;92.80
15638;DHT22;26604;53.596;10.042;2023-07-22T08:55:34;20.00;88.00
15638;DHT22;26604;53.596;10.042;2023-07-22T08:58:02;20.10;79.10
15638;DHT22;26604;53.596;10.042;2023-07-22T09:00:30;20.40;88.30
15638;DHT22;26604;53.596;10.042;2023-07-22T09:02:58;20.60;68.70
15638;DHT22;26604;53.596;10.042;2023-07-22T09:05:26;20.80;66.20
15638;DHT22;26604;53.596;10.042;2023-07-22T09:07:55;21.10;70.20
15638;DHT22;26604;53.596;10.042;2023-07-22T09:10:23;21.40;73.50
15638;DHT22;26604;53.596;10.042;2023-07-22T09:12:51;21.60;64.30
15638;DHT22;26604;53.596;10.042;2023-07-22T09:15:18;21.60;58.40
15638;DHT22;26604;53.596;10.042;2023-07-22T09:17:46;21.50;55.40
15638;DHT22;26604;53.596;10.042;2023-07-22T09:20:14;21.30;47.80
15638;DHT22;26604;53.596;10.042;2023-07-22T09:22:43;21.20;52.90
15638;DHT22;26604;53.596;10.042;2023-07-22T09:25:17;21.20;53.10
15638;DHT22;26604;53.596;10.042;2023-07-22T09:27:45;21.20;49.50
15638;DHT22;26604;53.596;10.042;2023-07-22T09:30:23;21.10;44.00
15638;DHT22;26604;53.596;10.042;2023-07-22T09:32:51;20.80;49.40
15638;DHT22;26604;53.596;10.042;2023-07-22T09:35:18;20.60;53.60
15638;DHT22;26604;53.596;10.042;2023-07-22T09:37:45;20.50;60.50
15638;DHT22;26604;53.596;10.042;2023-07-22T09:40:18;20.30;62.90
15638;DHT22;26604;53.596;10.042;2023-07-22T09:42:46;20.20;69.10
15638;DHT22;26604;53.596;10.042;2023-07-22T09:45:13;20.10;72.40
15638;DHT22;26604;53.596;10.042;2023-07-22T09:47:41;20.20;76.30
15638;DHT22;26604;53.596;10.042;2023-07-22T09:50:11;20.60;70.80
15638;DHT22;26604;53.596;10.042;2023-07-22T09:52:42;21.20;62.10
15638;DHT22;26604;53.596;10.042;2023-07-22T09:55:09;21.60;53.70
15638;DHT22;26604;53.596;10.042;2023-07-22T09:57:43;21.90;50.80
15638;DHT22;26604;53.596;10.042;2023-07-22T10:00:12;22.10;51.20
15638;DHT22;26604;53.596;10.042;2023-07-22T10:02:41;22.30;43.60
15638;DHT22;26604;53.596;10.042;2023-07-22T10:05:11;22.40;43.80
15638;DHT22;26604;53.596;10.042;2023-07-22T10:07:42;22.50;40.50
15638;DHT22;26604;53.596;10.042;2023-07-22T10:10:11;22.80;41.40
15638;DHT22;26604;53.596;10.042;2023-07-22T10:12:40;23.10;38.80
15638;DHT22;26604;53.596;10.042;2023-07-22T10:15:08;23.30;35.90
15638;DHT22;26604;53.596;10.042;2023-07-22T10:17:36;23.20;32.30
15638;DHT22;26604;53.596;10.042;2023-07-22T10:20:03;23.10;33.10
15638;DHT22;26604;53.596;10.042;2023-07-22T10:22:35;23.10;32.80
15638;DHT22;26604;53.596;10.042;2023-07-22T10:25:04;23.30;33.80
15638;DHT22;26604;53.596;10.042;2023-07-22T10:27:32;23.50;29.80
15638;DHT22;26604;53.596;10.042;2023-07-22T10:30:01;23.70;23.30
15638;DHT22;26604;53.596;10.042;2023-07-22T10:32:33;23.80;22.00
15638;DHT22;26604;53.596;10.042;2023-07-22T10:35:00;24.00;23.90
15638;DHT22;26604;53.596;10.042;2023-07-22T10:37:30;24.10;19.70
15638;DHT22;26604;53.596;10.042;2023-07-22T10:42:41;23.90;19.10
15638;DHT22;26604;53.596;10.042;2023-07-22T10:45:23;23.70;18.40
15638;DHT22;26604;53.596;10.042;2023-07-22T10:48:00;23.30;20.10
15638;DHT22;26604;53.596;10.042;2023-07-22T10:50:41;23.00;21.60
15638;DHT22;26604;53.596;10.042;2023-07-22T10:53:12;22.70;21.60
15638;DHT22;26604;53.596;10.042;2023-07-22T10:56:04;22.40;24.10
15638;DHT22;26604;53.596;10.042;2023-07-22T10:58:32;22.20;26.70
15638;DHT22;26604;53.596;10.042;2023-07-22T11:01:22;22.10;26.50
15638;DHT22;26604;53.596;10.042;2023-07-22T11:04:10;22.50;28.30
15638;DHT22;26604;53.596;10.042;2023-07-22T11:06:38;22.80;30.10
15638;DHT22;26604;53.596;10.042;2023-07-22T11:09:05;23.10;26.30
15638;DHT22;26604;53.596;10.042;2023-07-22T11:11:36;23.40;25.20
15638;DHT22;26604;53.596;10.042;2023-07-22T11:14:14;23.70;23.00
15638;DHT22;26604;53.596;10.042;2023-07-22T11:16:45;23.80;20.20
15638;DHT22;26604;53.596;10.042;2023-07-22T11:19:13;23.90;18.40
15638;DHT22;26604;53.596;10.042;2023-07-22T11:21:40;24.10;18.70
15638;DHT22;26604;53.596;10.042;2023-07-22T11:24:07;24.30;19.80
15638;DHT22;26604;53.596;10.042;2023-07-22T11:26:35;24.40;17.50
15638;DHT22;26604;53.596;10.042;2023-07-22T11:29:03;24.40;16.40
15638;DHT22;26604;53.596;10.042;2023-07-22T11:31:31;24.50;15.10
15638;DHT22;26604;53.596;10.042;2023-07-22T11:34:00;24.60;13.60
15638;DHT22;26604;53.596;10.042;2023-07-22T11:36:27;24.60;12.60
15638;DHT22;26604;53.596;10.042;2023-07-22T11:38:53;24.60;12.40
15638;DHT22;26604;53.596;10.042;2023-07-22T11:41:21;24.60;13.40
15638;DHT22;26604;53.596;10.042;2023-07-22T11:43:48;24.70;12.30
15638;DHT22;26604;53.596;10.042;2023-07-22T11:46:15;24.80;12.20
15638;DHT22;26604;53.596;10.042;2023-07-22T11:48:49;24.80;11.00
15638;DHT22;26604;53.596;10.042;2023-07-22T11:51:19;24.60;11.90
15638;DHT22;26604;53.596;10.042;2023-07-22T11:53:47;24.50;13.20
15638;DHT22;26604;53.596;10.042;2023-07-22T11:56:18;24.30;13.80
15638;DHT22;26604;53.596;10.042;2023-07-22T11:58:49;24.20;14.60
15638;DHT22;26604;53.596;10.042;2023-07-22T12:01:16;24.20;14.70
15638;DHT22;26604;53.596;10.042;2023-07-22T12:03:43;24.30;15.40
15638;DHT22;26604;53.596;10.042;2023-07-22T12:06:10;24.50;15.30
15638;DHT22;26604;53.596;10.042;2023-07-22T12:08:43;24.60;13.00
15638;DHT22;26604;53.596;10.042;2023-07-22T12:11:16;24.60;15.30
15638;DHT22;26604;53.596;10.042;2023-07-22T12:13:44;24.80;15.00
15638;DHT22;26604;53.596;10.042;2023-07-22T12:16:21;25.00;13.90
15638;DHT22;26604;53.596;10.042;2023-07-22T12:18:49;25.40;12.50
15638;DHT22;26604;53.596;10.042;2023-07-22T12:21:16;25.70;8.80
15638;DHT22;26604;53.596;10.042;2023-07-22T12:23:46;25.80;8.20
15638;DHT22;26604;53.596;10.042;2023-07-22T12:26:12;25.80;9.00
15638;DHT22;26604;53.596;10.042;2023-07-22T12:28:39;25.80;8.90
15638;DHT22;26604;53.596;10.042;2023-07-22T12:31:09;25.90;10.20
15638;DHT22;26604;53.596;10.042;2023-07-22T12:33:36;26.00;9.10
15638;DHT22;26604;53.596;10.042;2023-07-22T12:36:04;26.00;9.50
15638;DHT22;26604;53.596;10.042;2023-07-22T12:38:31;25.80;9.70
15638;DHT22;26604;53.596;10.042;2023-07-22T12:41:00;25.30;9.50
15638;DHT22;26604;53.596;10.042;2023-07-22T12:43:27;24.70;13.10
15638;DHT22;26604;53.596;10.042;2023-07-22T12:45:54;24.00;16.90
15638;DHT22;26604;53.596;10.042;2023-07-22T12:48:21;23.50;21.60
15638;DHT22;26604;53.596;10.042;2023-07-22T12:50:49;23.00;24.70
15638;DHT22;26604;53.596;10.042;2023-07-22T12:53:17;22.60;28.80
15638;DHT22;26604;53.596;10.042;2023-07-22T12:55:43;22.20;36.90
15638;DHT22;26604;53.596;10.042;2023-07-22T12:58:12;21.90;47.60
15638;DHT22;26604;53.596;10.042;2023-07-22T13:00:38;21.80;56.40
15638;DHT22;26604;53.596;10.042;2023-07-22T13:03:06;21.70;59.70
15638;DHT22;26604;53.596;10.042;2023-07-22T13:05:33;21.60;56.50
15638;DHT22;26604;53.596;10.042;2023-07-22T13:08:00;21.60;58.80
15638;DHT22;26604;53.596;10.042;2023-07-22T13:10:27;21.50;60.90
15638;DHT22;26604;53.596;10.042;2023-07-22T13:12:54;21.30;59.60
15638;DHT22;26604;53.596;10.042;2023-07-22T13:15:22;21.20;64.70
15638;DHT22;26604;53.596;10.042;2023-07-22T13:17:49;20.90;73.60
15638;DHT22;26604;53.596;10.042;2023-07-22T13:20:16;20.70;88.40
15638;DHT22;26604;53.596;10.042;2023-07-22T13:22:43;20.60;95.90
15638;DHT22;26604;53.596;10.042;2023-07-22T13:25:10;20.60;96.60
15638;DHT22;26604;53.596;10.042;2023-07-22T13:27:37;20.70;97.40
15638;DHT22;26604;53.596;10.042;2023-07-22T13:30:07;20.70;97.60
15638;DHT22;26604;53.596;10.042;2023-07-22T13:32:35;20.80;94.30
15638;DHT22;26604;53.596;10.042;2023-07-22T13:35:02;20.90;97.90
15638;DHT22;26604;53.596;10.042;2023-07-22T13:37:30;21.00;96.70
15638;DHT22;26604;53.596;10.042;2023-07-22T13:39:56;21.00;99.90
15638;DHT22;26604;53.596;10.042;2023-07-22T13:42:23;21.00;99.90
15638;DHT22;26604;53.596;10.042;2023-07-22T13:44:50;20.90;99.90
15638;DHT22;26604;53.596;10.042;2023-07-22T13:47:17;20.60;99.90
15638;DHT22;26604;53.596;10.042;2023-07-22T13:49:48;20.30;99.90
15638;DHT22;26604;53.596;10.042;2023-07-22T13:52:15;20.10;99.90
15638;DHT22;26604;53.596;10.042;2023-07-22T13:54:41;19.90;99.90
15638;DHT22;26604;53.596;10.042;2023-07-22T13:57:08;19.90;99.90
15638;DHT22;26604;53.596;10.042;2023-07-22T13:59:35;20.00;99.90
15638;DHT22;26604;53.596;10.042;2023-07-22T14:02:02;20.30;99.90
15638;DHT22;26604;53.596;10.042;2023-07-22T14:04:29;20.50;99.90
15638;DHT22;26604;53.596;10.042;2023-07-22T14:06:58;20.80;99.90
15638;DHT22;26604;53.596;10.042;2023-07-22T14:09:24;21.10;99.90
15638;DHT22;26604;53.596;10.042;2023-07-22T14:11:51;21.30;99.90
15638;DHT22;26604;53.596;10.042;2023-07-22T14:14:18;21.40;99.90
15638;DHT22;26604;53.596;10.042;2023-07-22T14:16:45;21.50;99.90
15638;DHT22;26604;53.596;10.042;2023-07-22T14:19:12;21.60;99.90
15638;DHT22;26604;53.596;10.042;2023-07-22T14:21:39;21.60;99.90
15638;DHT22;26604;53.596;10.042;2023-07-22T14:24:07;21.70;99.90
15638;DHT22;26604;53.596;10.042;2023-07-22T14:26:34;21.90;99.90
15638;DHT22;26604;53.596;10.042;2023-07-22T14:29:00;22.10;99.90
15638;DHT22;26604;53.596;10.042;2023-07-22T14:31:27;22.30;99.90
15638;DHT22;26604;53.596;10.042;2023-07-22T14:33:54;22.70;99.90
15638;DHT22;26604;53.596;10.042;2023-07-22T14:36:21;22.90;99.90
15638;DHT22;26604;53.596;10.042;2023-07-22T14:38:48;23.00;99.90
15638;DHT22;26604;53.596;10.042;2023-07-22T14:41:16;23.00;99.90
15638;DHT22;26604;53.596;10.042;2023-07-22T14:43:43;23.00;96.00
15638;DHT22;26604;53.596;10.042;2023-07-22T14:46:10;22.90;92.00
15638;DHT22;26604;53.596;10.042;2023-07-22T14:48:37;22.60;90.60
15638;DHT22;26604;53.596;10.042;2023-07-22T14:51:04;22.50;91.60
15638;DHT22;26604;53.596;10.042;2023-07-22T14:53:31;22.50;94.20
15638;DHT22;26604;53.596;10.042;2023-07-22T14:55:57;22.20;85.20
15638;DHT22;26604;53.596;10.042;2023-07-22T14:58:26;22.00;81.60
15638;DHT22;26604;53.596;10.042;2023-07-22T15:00:53;21.60;91.50
15638;DHT22;26604;53.596;10.042;2023-07-22T15:03:19;21.40;96.90
15638;DHT22;26604;53.596;10.042;2023-07-22T15:05:46;21.20;96.90
15638;DHT22;26604;53.596;10.042;2023-07-22T15:08:13;21.00;99.90
15638;DHT22;26604;53.596;10.042;2023-07-22T15:10:40;21.00;99.90
15638;DHT22;26604;53.596;10.042;2023-07-22T15:13:07;21.10;99.90
15638;DHT22;26604;53.596;10.042;2023-07-22T15:15:43;21.00;99.90
15638;DHT22;26604;53.596;10.042;2023-07-22T15:18:11;21.00;99.90
15638;DHT22;26604;53.596;10.042;2023-07-22T15:20:39;21.00;99.90
15638;DHT22;26604;53.596;10.042;2023-07-22T15:23:06;20.90;99.90
15638;DHT22;26604;53.596;10.042;2023-07-22T15:25:33;20.90;99.90